createdAt,value
2018-03-04T00:00:00.646Z,98284.78
2018-03-04T00:02:29.329Z,98275.95
2018-03-04T00:04:58.074Z,98270.85
2018-03-04T00:07:26.800Z,98261.53
2018-03-04T00:09:55.595Z,98259.69
2018-03-04T00:12:24.281Z,98261.92
2018-03-04T00:14:52.967Z,98272.00
2018-03-04T00:17:22.059Z,98271.82
2018-03-04T00:19:50.639Z,98257.13
2018-03-04T00:22:19.253Z,98242.31
2018-03-04T00:24:48.171Z,98218.38
2018-03-04T00:27:16.902Z,98200.23
2018-03-04T00:29:45.553Z,98188.63
2018-03-04T00:32:14.274Z,98185.39
2018-03-04T00:34:42.914Z,98182.23
2018-03-04T00:37:11.648Z,98189.67
2018-03-04T00:39:41.462Z,98203.31
2018-03-04T00:42:10.147Z,98210.61
2018-03-04T00:44:38.724Z,98201.78
2018-03-04T00:47:07.673Z,98191.35
2018-03-04T00:49:37.027Z,98189.08
2018-03-04T00:52:05.663Z,98189.33
2018-03-04T00:54:35.155Z,98178.23
2018-03-04T00:57:04.621Z,98181.96
2018-03-04T00:59:33.307Z,98188.41
2018-03-04T01:02:02.034Z,98199.66
2018-03-04T01:04:31.490Z,98189.96
2018-03-04T01:07:00.122Z,98176.16
2018-03-04T01:09:29.892Z,98175.88
2018-03-04T01:11:58.468Z,98180.17
2018-03-04T01:14:27.060Z,98184.53
2018-03-04T01:16:55.841Z,98185.97
2018-03-04T01:19:24.483Z,98181.77
2018-03-04T01:21:53.214Z,98180.61
2018-03-04T01:24:22.394Z,98180.89
2018-03-04T01:26:51.101Z,98170.63
2018-03-04T01:29:19.789Z,98168.14
2018-03-04T01:31:48.722Z,98165.00
2018-03-04T01:34:18.178Z,98161.38
2018-03-04T01:36:46.806Z,98155.60
2018-03-04T01:39:16.426Z,98153.07
2018-03-04T01:41:44.973Z,98154.52
2018-03-04T01:44:13.738Z,98157.65
2018-03-04T01:46:43.450Z,98155.00
2018-03-04T01:49:12.136Z,98156.37
2018-03-04T01:51:52.963Z,98164.90
2018-03-04T01:54:22.410Z,98168.22
2018-03-04T01:56:51.049Z,98173.67
2018-03-04T01:59:19.781Z,98168.95
2018-03-04T02:01:48.434Z,98179.22
2018-03-04T02:04:17.153Z,98170.91
2018-03-04T02:06:46.038Z,98161.58
2018-03-04T02:09:14.736Z,98132.33
2018-03-04T02:11:43.420Z,98122.80
2018-03-04T02:14:12.472Z,98134.43
2018-03-04T02:16:41.197Z,98136.52
2018-03-04T02:19:09.884Z,98127.62
2018-03-04T02:21:39.270Z,98112.77
2018-03-04T02:24:07.979Z,98110.52
2018-03-04T02:26:36.554Z,98119.56
2018-03-04T02:29:05.300Z,98119.61
2018-03-04T02:31:34.751Z,98122.22
2018-03-04T02:34:03.436Z,98118.86
2018-03-04T02:36:32.372Z,98113.20
2018-03-04T02:39:01.776Z,98123.10
2018-03-04T02:41:31.238Z,98127.03
2018-03-04T02:43:59.912Z,98121.91
2018-03-04T02:46:28.610Z,98120.94
2018-03-04T02:48:57.158Z,98128.09
2018-03-04T02:51:25.981Z,98129.41
2018-03-04T02:53:54.666Z,98127.86
2018-03-04T02:56:23.352Z,98120.16
2018-03-04T02:58:52.028Z,98118.72
2018-03-04T03:01:20.603Z,98129.62
2018-03-04T03:03:49.301Z,98128.23
2018-03-04T03:06:18.245Z,98136.86
2018-03-04T03:08:47.703Z,98139.00
2018-03-04T03:11:16.390Z,98155.29
2018-03-04T03:13:45.272Z,98159.25
2018-03-04T03:16:13.958Z,98159.20
2018-03-04T03:18:42.500Z,98163.71
2018-03-04T03:21:11.452Z,98167.47
2018-03-04T03:23:40.016Z,98166.61
2018-03-04T03:26:08.701Z,98164.55
2018-03-04T03:28:37.695Z,98174.51
2018-03-04T03:31:06.348Z,98177.14
2018-03-04T03:33:35.066Z,98178.28
2018-03-04T03:36:03.951Z,98182.28
2018-03-04T03:38:32.647Z,98196.44
2018-03-04T03:41:01.293Z,98199.78
2018-03-04T03:43:30.019Z,98202.40
2018-03-04T03:45:58.704Z,98194.97
2018-03-04T03:48:27.241Z,98198.53
2018-03-04T03:50:56.782Z,98207.78
2018-03-04T03:53:25.474Z,98204.73
2018-03-04T03:55:54.124Z,98202.74
2018-03-04T03:58:23.116Z,98208.67
2018-03-04T04:00:51.840Z,98205.69
2018-03-04T04:03:20.525Z,98198.34
2018-03-04T04:05:49.211Z,98207.83
2018-03-04T04:08:17.897Z,98213.41
2018-03-04T04:10:46.530Z,98206.62
2018-03-04T04:13:16.047Z,98207.05
2018-03-04T04:15:44.777Z,98214.45
2018-03-04T04:18:13.465Z,98213.91
2018-03-04T04:20:42.457Z,98213.91
2018-03-04T04:23:11.241Z,98216.27
2018-03-04T04:25:39.933Z,98219.88
2018-03-04T04:28:08.920Z,98211.77
2018-03-04T04:30:37.572Z,98214.67
2018-03-04T04:33:06.292Z,98224.13
2018-03-04T04:35:35.087Z,98226.91
2018-03-04T04:38:03.773Z,98232.86
2018-03-04T04:40:32.413Z,98229.88
2018-03-04T04:43:01.610Z,98232.13
2018-03-04T04:45:30.156Z,98224.41
2018-03-04T04:47:59.635Z,98224.69
2018-03-04T04:50:28.430Z,98227.57
2018-03-04T04:52:57.120Z,98226.30
2018-03-04T04:55:25.803Z,98231.20
2018-03-04T04:57:54.796Z,98238.30
2018-03-04T05:00:23.985Z,98243.84
2018-03-04T05:02:52.573Z,98246.61
2018-03-04T05:05:21.462Z,98245.73
2018-03-04T05:07:50.153Z,98260.62
2018-03-04T05:10:18.838Z,98256.54
2018-03-04T05:12:47.572Z,98266.13
2018-03-04T05:15:17.023Z,98261.82
2018-03-04T05:17:45.657Z,98261.73
2018-03-04T05:20:15.129Z,98267.62
2018-03-04T05:22:43.843Z,98276.55
2018-03-04T05:25:13.302Z,98279.09
2018-03-04T05:27:42.097Z,98285.77
2018-03-04T05:30:10.783Z,98286.36
2018-03-04T05:32:39.469Z,98292.16
2018-03-04T05:35:08.257Z,98288.84
2018-03-04T05:37:36.942Z,98296.44
2018-03-04T05:40:05.516Z,98296.21
2018-03-04T05:42:34.214Z,98297.03
2018-03-04T05:45:02.898Z,98306.61
2018-03-04T05:47:31.692Z,98296.17
2018-03-04T05:50:00.368Z,98300.88
2018-03-04T05:52:29.056Z,98308.64
2018-03-04T05:54:57.741Z,98309.66
2018-03-04T05:57:26.693Z,98313.29
2018-03-04T05:59:55.420Z,98323.95
2018-03-04T06:02:24.107Z,98330.70
2018-03-04T06:04:53.102Z,98331.72
2018-03-04T06:07:21.786Z,98334.64
2018-03-04T06:09:50.360Z,98334.09
2018-03-04T06:12:23.073Z,98338.96
2018-03-04T06:14:51.836Z,98341.15
2018-03-04T06:17:20.461Z,98346.41
2018-03-04T06:19:49.924Z,98343.94
2018-03-04T06:22:18.570Z,98346.78
2018-03-04T06:24:47.316Z,98350.39
2018-03-04T06:27:16.212Z,98356.66
2018-03-04T06:29:44.873Z,98362.52
2018-03-04T06:32:13.517Z,98369.87
2018-03-04T06:34:42.428Z,98382.38
2018-03-04T06:37:11.078Z,98387.99
2018-03-04T06:39:40.538Z,98393.15
2018-03-04T06:42:09.568Z,98393.91
2018-03-04T06:44:39.041Z,98400.66
2018-03-04T06:47:07.724Z,98407.98
2018-03-04T06:49:36.509Z,98404.05
2018-03-04T06:52:05.136Z,98417.34
2018-03-04T06:54:34.595Z,98422.34
2018-03-04T06:57:03.390Z,98427.83
2018-03-04T06:59:32.077Z,98429.86
2018-03-04T07:02:00.752Z,98434.41
2018-03-04T07:04:29.447Z,98439.53
2018-03-04T07:06:58.064Z,98439.33
2018-03-04T07:09:27.532Z,98435.95
2018-03-04T07:11:56.482Z,98442.39
2018-03-04T07:14:25.211Z,98454.09
2018-03-04T07:16:53.898Z,98462.80
2018-03-04T07:19:22.932Z,98467.32
2018-03-04T07:21:52.398Z,98473.34
2018-03-04T07:24:20.978Z,98473.10
2018-03-04T07:26:49.707Z,98473.45
2018-03-04T07:29:19.171Z,98490.02
2018-03-04T07:31:47.860Z,98492.84
2018-03-04T07:34:16.946Z,98500.22
2018-03-04T07:36:45.533Z,98505.45
2018-03-04T07:39:14.223Z,98499.34
2018-03-04T07:41:44.135Z,98504.49
2018-03-04T07:44:12.761Z,98500.17
2018-03-04T07:46:42.219Z,98495.33
2018-03-04T07:49:11.216Z,98501.66
2018-03-04T07:51:39.865Z,98506.57
2018-03-04T07:54:08.978Z,98505.12
2018-03-04T07:56:37.681Z,98506.81
2018-03-04T07:59:06.372Z,98519.97
2018-03-04T08:01:35.008Z,98525.30
2018-03-04T08:04:04.865Z,98536.79
2018-03-04T08:06:33.499Z,98539.76
2018-03-04T08:09:02.959Z,98553.81
2018-03-04T08:11:31.734Z,98545.91
2018-03-04T08:14:00.430Z,98550.99
2018-03-04T08:16:29.011Z,98557.52
2018-03-04T08:18:57.900Z,98550.78
2018-03-04T08:21:26.585Z,98548.85
2018-03-04T08:23:55.174Z,98552.63
2018-03-04T08:26:41.876Z,98554.77
2018-03-04T08:29:10.504Z,98555.84
2018-03-04T08:31:39.971Z,98556.50
2018-03-04T08:34:08.859Z,98566.04
2018-03-04T08:36:37.550Z,98574.69
2018-03-04T08:39:06.230Z,98581.95
2018-03-04T08:41:35.120Z,98582.86
2018-03-04T08:44:03.766Z,98587.08
2018-03-04T08:46:32.496Z,98599.45
2018-03-04T08:49:01.287Z,98604.84
2018-03-04T08:51:29.968Z,98613.14
2018-03-04T08:53:58.659Z,98609.53
2018-03-04T08:56:27.445Z,98615.45
2018-03-04T08:58:56.080Z,98624.47
2018-03-04T09:01:25.528Z,98621.23
2018-03-04T09:03:54.521Z,98621.21
2018-03-04T09:06:23.109Z,98626.15
2018-03-04T09:08:51.794Z,98626.81
2018-03-04T09:11:20.579Z,98635.95
2018-03-04T09:13:49.168Z,98630.88
2018-03-04T09:16:17.884Z,98629.31
2018-03-04T09:18:47.561Z,98635.31
2018-03-04T09:21:16.244Z,98635.89
2018-03-04T09:23:44.834Z,98637.06
2018-03-04T09:26:13.827Z,98635.38
2018-03-04T09:28:43.586Z,98633.41
2018-03-04T09:31:13.039Z,98635.70
2018-03-04T09:33:42.032Z,98640.72
2018-03-04T09:36:10.718Z,98648.73
2018-03-04T09:38:39.361Z,98653.35
2018-03-04T09:41:08.090Z,98648.56
2018-03-04T09:43:36.776Z,98650.46
2018-03-04T09:46:05.353Z,98659.41
2018-03-04T09:48:34.042Z,98664.68
2018-03-04T09:51:02.626Z,98665.86
2018-03-04T09:53:31.212Z,98657.55
2018-03-04T09:55:59.997Z,98656.70
2018-03-04T09:58:28.682Z,98662.14
2018-03-04T10:00:57.348Z,98675.86
2018-03-04T10:03:26.360Z,98674.78
2018-03-04T10:05:55.210Z,98674.00
2018-03-04T10:08:23.942Z,98675.57
2018-03-04T10:10:52.938Z,98673.45
2018-03-04T10:13:21.620Z,98670.55
2018-03-04T10:15:50.256Z,98673.53
2018-03-04T10:18:20.012Z,98670.51
2018-03-04T10:20:48.568Z,98673.72
2018-03-04T10:23:17.287Z,98670.60
2018-03-04T10:25:46.068Z,98670.56
2018-03-04T10:28:14.722Z,98667.84
2018-03-04T10:30:43.441Z,98679.56
2018-03-04T10:33:12.128Z,98684.13
2018-03-04T10:35:40.776Z,98685.03
2018-03-04T10:38:09.499Z,98682.77
2018-03-04T10:40:38.293Z,98683.16
2018-03-04T10:43:06.979Z,98686.34
2018-03-04T10:45:35.620Z,98680.15
2018-03-04T10:48:04.658Z,98684.39
2018-03-04T10:50:33.217Z,98694.61
2018-03-04T10:53:01.921Z,98690.09
2018-03-04T10:55:30.814Z,98690.59
2018-03-04T10:57:59.489Z,98691.06
2018-03-04T11:00:28.234Z,98691.73
2018-03-04T11:02:59.845Z,98687.04
2018-03-04T11:05:28.425Z,98684.02
2018-03-04T11:07:57.109Z,98682.16
2018-03-04T11:10:26.059Z,98683.13
2018-03-04T11:12:54.786Z,98673.20
2018-03-04T11:15:23.389Z,98675.18
2018-03-04T11:17:52.254Z,98680.86
2018-03-04T11:20:20.948Z,98684.98
2018-03-04T11:22:49.640Z,98680.33
2018-03-04T11:25:18.486Z,98689.47
2018-03-04T11:27:47.209Z,98694.84
2018-03-04T11:30:15.895Z,98702.43
2018-03-04T11:32:45.766Z,98704.22
2018-03-04T11:35:14.495Z,98690.30
2018-03-04T11:37:43.126Z,98696.55
2018-03-04T11:40:12.744Z,98700.16
2018-03-04T11:42:41.376Z,98713.70
2018-03-04T11:45:09.962Z,98711.14
2018-03-04T11:47:38.699Z,98725.12
2018-03-04T11:50:07.433Z,98721.20
2018-03-04T11:52:36.059Z,98727.80
2018-03-04T11:55:05.524Z,98732.02
2018-03-04T11:57:34.204Z,98732.68
2018-03-04T12:00:02.893Z,98733.42
2018-03-04T12:02:31.627Z,98736.50
2018-03-04T12:05:01.085Z,98744.95
2018-03-04T12:07:29.770Z,98738.00
2018-03-04T12:09:58.763Z,98748.44
2018-03-04T12:12:27.351Z,98751.81
2018-03-04T12:14:55.972Z,98749.37
2018-03-04T12:17:25.689Z,98748.76
2018-03-04T12:19:55.141Z,98745.69
2018-03-04T12:22:23.826Z,98760.35
2018-03-04T12:24:53.029Z,98763.71
2018-03-04T12:27:21.714Z,98761.07
2018-03-04T12:29:50.295Z,98764.22
2018-03-04T12:32:19.800Z,98769.45
2018-03-04T12:34:48.484Z,98770.83
2018-03-04T12:37:17.171Z,98777.39
2018-03-04T12:39:45.851Z,98766.95
2018-03-04T12:42:14.543Z,98771.20
2018-03-04T12:44:43.188Z,98782.36
2018-03-04T12:47:12.221Z,98788.20
2018-03-04T12:49:40.874Z,98786.98
2018-03-04T12:52:09.604Z,98794.35
2018-03-04T12:54:38.328Z,98791.52
2018-03-04T12:57:07.788Z,98798.69
2018-03-04T12:59:36.473Z,98799.44
2018-03-04T13:02:05.258Z,98806.36
2018-03-04T13:04:33.903Z,98811.52
2018-03-04T13:07:02.529Z,98809.45
2018-03-04T13:09:31.315Z,98820.92
2018-03-04T13:12:00.028Z,98818.95
2018-03-04T13:14:28.695Z,98826.05
2018-03-04T13:16:57.373Z,98825.59
2018-03-04T13:19:26.059Z,98826.63
2018-03-04T13:21:55.473Z,98823.50
2018-03-04T13:24:24.952Z,98827.02
2018-03-04T13:26:53.620Z,98834.27
2018-03-04T13:29:22.306Z,98833.75
2018-03-04T13:31:51.273Z,98845.33
2018-03-04T13:34:20.028Z,98854.77
2018-03-04T13:36:49.495Z,98862.55
2018-03-04T13:39:18.376Z,98850.98
2018-03-04T13:41:47.065Z,98855.03
2018-03-04T13:44:15.748Z,98856.92
2018-03-04T13:46:44.580Z,98858.66
2018-03-04T13:49:14.042Z,98859.20
2018-03-04T13:51:42.727Z,98854.83
2018-03-04T13:54:11.455Z,98860.73
2018-03-04T13:56:40.923Z,98863.06
2018-03-04T13:59:09.503Z,98849.27
2018-03-04T14:01:38.236Z,98835.01
2018-03-04T14:04:07.692Z,98832.49
2018-03-04T14:06:42.269Z,98836.21
2018-03-04T14:09:11.724Z,98846.80
2018-03-04T14:11:40.411Z,98845.44
2018-03-04T14:14:09.096Z,98853.08
2018-03-04T14:16:37.718Z,98862.55
2018-03-04T14:19:07.188Z,98861.39
2018-03-04T14:21:35.865Z,98863.78
2018-03-04T14:24:04.555Z,98865.39
2018-03-04T14:26:33.189Z,98875.06
2018-03-04T14:29:02.637Z,98893.42
2018-03-04T14:31:31.333Z,98907.84
2018-03-04T14:33:59.961Z,98918.64
2018-03-04T14:36:30.084Z,98928.72
2018-03-04T14:38:58.821Z,98937.77
2018-03-04T14:41:27.504Z,98939.34
2018-03-04T14:43:56.298Z,98945.12
2018-03-04T14:46:24.984Z,98962.45
2018-03-04T14:48:54.340Z,98965.36
2018-03-04T14:51:23.114Z,98970.89
2018-03-04T14:53:52.578Z,98955.06
2018-03-04T14:56:21.197Z,98955.94
2018-03-04T14:58:50.718Z,98954.10
2018-03-04T15:01:19.449Z,98947.41
2018-03-04T15:03:48.078Z,98956.22
2018-03-04T15:06:17.856Z,98954.22
2018-03-04T15:08:46.531Z,98945.56
2018-03-04T15:11:15.152Z,98954.91
2018-03-04T15:13:44.621Z,98969.98
2018-03-04T15:16:13.207Z,98967.72
2018-03-04T15:18:41.893Z,98958.96
2018-03-04T15:21:10.627Z,98965.33
2018-03-04T15:23:40.078Z,98980.72
2018-03-04T15:26:08.664Z,98972.41
2018-03-04T15:28:37.450Z,98976.05
2018-03-04T15:31:06.135Z,98977.36
2018-03-04T15:33:34.766Z,98989.50
2018-03-04T15:36:04.384Z,98989.95
2018-03-04T15:38:33.114Z,98994.23
2018-03-04T15:41:01.745Z,99001.45
2018-03-04T15:43:31.158Z,99002.89
2018-03-04T15:46:00.610Z,99005.14
2018-03-04T15:48:29.295Z,99008.92
2018-03-04T15:50:58.288Z,98997.73
2018-03-04T15:53:26.932Z,99007.29
2018-03-04T15:55:55.661Z,99008.69
2018-03-04T15:58:24.718Z,98994.41
2018-03-04T16:00:53.440Z,98995.28
2018-03-04T16:03:22.124Z,98998.31
2018-03-04T16:05:50.919Z,98998.47
2018-03-04T16:08:19.612Z,99004.62
2018-03-04T16:10:48.162Z,99017.50
2018-03-04T16:13:17.176Z,99018.32
2018-03-04T16:15:45.818Z,99027.48
2018-03-04T16:18:14.548Z,99039.27
2018-03-04T16:20:43.341Z,99045.70
2018-03-04T16:23:12.028Z,99063.66
2018-03-04T16:25:40.601Z,99075.25
2018-03-04T16:28:09.554Z,99075.27
2018-03-04T16:30:39.092Z,99086.30
2018-03-04T16:33:07.791Z,99099.30
2018-03-04T16:35:36.784Z,99094.68
2018-03-04T16:38:05.361Z,99096.13
2018-03-04T16:40:33.940Z,99097.34
2018-03-04T16:43:03.135Z,99103.23
2018-03-04T16:45:31.834Z,99112.41
2018-03-04T16:48:00.413Z,99111.74
2018-03-04T16:50:29.263Z,99123.08
2018-03-04T16:52:58.001Z,99122.44
2018-03-04T16:55:26.567Z,99115.59
2018-03-04T16:57:55.572Z,99120.59
2018-03-04T17:00:24.208Z,99124.93
2018-03-04T17:02:52.942Z,99139.47
2018-03-04T17:05:21.738Z,99148.69
2018-03-04T17:07:50.522Z,99154.98
2018-03-04T17:10:19.103Z,99158.64
2018-03-04T17:12:47.893Z,99162.95
2018-03-04T17:15:16.535Z,99160.64
2018-03-04T17:17:45.265Z,99162.95
2018-03-04T17:20:15.000Z,99159.23
2018-03-04T17:22:43.726Z,99164.68
2018-03-04T17:25:12.360Z,99162.11
2018-03-04T17:27:41.099Z,99158.50
2018-03-04T17:30:09.644Z,99174.64
2018-03-04T17:32:38.369Z,99171.44
2018-03-04T17:35:07.156Z,99189.89
2018-03-04T17:37:35.794Z,99195.89
2018-03-04T17:40:05.190Z,99189.86
2018-03-04T17:42:34.659Z,99194.63
2018-03-04T17:45:03.351Z,99198.38
2018-03-04T17:47:32.118Z,99197.42
2018-03-04T17:50:00.909Z,99198.13
2018-03-04T17:52:29.550Z,99215.36
2018-03-04T17:54:59.000Z,99222.16
2018-03-04T17:57:27.783Z,99230.43
2018-03-04T17:59:56.432Z,99234.83
2018-03-04T18:02:25.156Z,99244.34
2018-03-04T18:04:53.842Z,99250.82
2018-03-04T18:07:22.527Z,99239.61
2018-03-04T18:09:51.178Z,99247.00
2018-03-04T18:12:20.171Z,99262.53
2018-03-04T18:14:48.892Z,99259.39
2018-03-04T18:17:17.532Z,99260.48
2018-03-04T18:19:46.524Z,99260.00
2018-03-04T18:22:15.256Z,99267.45
2018-03-04T18:24:43.843Z,99265.66
2018-03-04T18:27:12.440Z,99267.63
2018-03-04T18:29:41.894Z,99272.14
2018-03-04T18:32:10.570Z,99268.52
2018-03-04T18:34:39.302Z,99271.19
2018-03-04T18:37:07.952Z,99274.73
2018-03-04T18:39:37.391Z,99275.56
2018-03-04T18:42:06.199Z,99281.44
2018-03-04T18:44:35.673Z,99277.48
2018-03-04T18:47:08.084Z,99282.97
2018-03-04T18:49:37.112Z,99284.77
2018-03-04T18:52:05.839Z,99285.88
2018-03-04T18:54:34.526Z,99285.86
2018-03-04T18:57:03.663Z,99290.15
2018-03-04T18:59:33.126Z,99295.07
2018-03-04T19:02:01.750Z,99298.38
2018-03-04T19:04:31.215Z,99302.19
2018-03-04T19:06:59.863Z,99300.37
2018-03-04T19:09:28.528Z,99296.73
2018-03-04T19:11:58.289Z,99302.28
2018-03-04T19:14:26.990Z,99304.30
2018-03-04T19:16:55.629Z,99297.68
2018-03-04T19:19:24.401Z,99300.09
2018-03-04T19:21:53.755Z,99305.55
2018-03-04T19:24:22.385Z,99311.43
2018-03-04T19:26:52.049Z,99313.61
2018-03-04T19:29:20.747Z,99331.41
2018-03-04T19:31:49.420Z,99334.77
2018-03-04T19:34:18.205Z,99335.53
2018-03-04T19:36:46.891Z,99334.05
2018-03-04T19:39:15.542Z,99337.30
2018-03-04T19:41:44.410Z,99341.19
2018-03-04T19:44:13.125Z,99347.29
2018-03-04T19:46:41.767Z,99342.69
2018-03-04T19:49:10.498Z,99350.91
2018-03-04T19:51:39.044Z,99359.83
2018-03-04T19:54:07.761Z,99350.16
2018-03-04T19:56:36.617Z,99352.10
2018-03-04T19:59:06.053Z,99351.77
2018-03-04T20:01:34.737Z,99352.32
2018-03-04T20:04:03.694Z,99354.06
2018-03-04T20:06:32.419Z,99357.61
2018-03-04T20:09:01.103Z,99354.45
2018-03-04T20:11:29.846Z,99356.61
2018-03-04T20:13:59.299Z,99361.09
2018-03-04T20:16:27.984Z,99355.66
2018-03-04T20:18:56.668Z,99371.38
2018-03-04T20:21:25.358Z,99356.31
2018-03-04T20:23:54.041Z,99375.06
2018-03-04T20:26:22.998Z,99368.88
2018-03-04T20:28:51.725Z,99367.72
2018-03-04T20:31:20.363Z,99360.81
2018-03-04T20:33:49.455Z,99355.89
2018-03-04T20:36:18.184Z,99364.31
2018-03-04T20:38:46.816Z,99364.22
2018-03-04T20:41:16.284Z,99361.98
2018-03-04T20:43:44.949Z,99356.05
2018-03-04T20:46:13.592Z,99358.44
2018-03-04T20:48:43.456Z,99353.84
2018-03-04T20:51:12.142Z,99357.19
2018-03-04T20:53:40.827Z,99367.05
2018-03-04T20:56:09.563Z,99371.67
2018-03-04T20:58:39.022Z,99363.66
2018-03-04T21:01:07.709Z,99364.49
2018-03-04T21:03:36.643Z,99365.16
2018-03-04T21:06:06.061Z,99366.38
2018-03-04T21:08:34.786Z,99367.34
2018-03-04T21:11:03.779Z,99368.64
2018-03-04T21:13:32.364Z,99371.59
2018-03-04T21:16:01.057Z,99368.72
2018-03-04T21:18:30.310Z,99367.28
2018-03-04T21:20:59.750Z,99371.16
2018-03-04T21:23:28.482Z,99373.58
2018-03-04T21:25:57.953Z,99375.98
2018-03-04T21:28:26.516Z,99379.35
2018-03-04T21:30:55.213Z,99385.38
2018-03-04T21:33:24.004Z,99387.05
2018-03-04T21:35:53.514Z,99385.17
2018-03-04T21:38:23.063Z,99378.47
2018-03-04T21:40:52.787Z,99377.33
2018-03-04T21:43:21.512Z,99385.42
2018-03-04T21:45:50.145Z,99384.58
2018-03-04T21:48:19.610Z,99387.05
2018-03-04T21:50:48.281Z,99394.35
2018-03-04T21:53:16.967Z,99397.91
2018-03-04T21:55:46.071Z,99404.56
2018-03-04T21:58:14.759Z,99412.27
2018-03-04T22:00:43.423Z,99405.44
2018-03-04T22:03:12.117Z,99404.61
2018-03-04T22:05:40.800Z,99408.19
2018-03-04T22:08:09.348Z,99412.74
2018-03-04T22:10:38.285Z,99407.08
2018-03-04T22:13:06.971Z,99408.76
2018-03-04T22:15:35.657Z,99407.95
2018-03-04T22:18:04.352Z,99411.47
2018-03-04T22:20:33.126Z,99411.31
2018-03-04T22:23:01.813Z,99412.70
2018-03-04T22:25:31.015Z,99412.98
2018-03-04T22:27:59.649Z,99417.62
2018-03-04T22:30:29.100Z,99430.67
2018-03-04T22:32:57.893Z,99436.89
2018-03-04T22:35:26.469Z,99432.20
2018-03-04T22:37:55.058Z,99432.88
2018-03-04T22:40:23.842Z,99426.55
2018-03-04T22:42:52.532Z,99428.97
2018-03-04T22:45:21.265Z,99438.69
2018-03-04T22:47:50.820Z,99437.98
2018-03-04T22:50:19.506Z,99436.05
2018-03-04T22:52:48.151Z,99439.52
2018-03-04T22:55:16.878Z,99434.69
2018-03-04T22:57:45.569Z,99431.95
2018-03-04T23:00:14.151Z,99440.52
2018-03-04T23:02:43.148Z,99440.52
2018-03-04T23:05:11.720Z,99444.72
2018-03-04T23:07:40.416Z,99443.03
2018-03-04T23:10:09.156Z,99446.07
2018-03-04T23:12:37.889Z,99459.48
2018-03-04T23:15:06.536Z,99456.95
2018-03-04T23:17:35.359Z,99460.56
2018-03-04T23:20:04.158Z,99464.05
2018-03-04T23:22:32.939Z,99470.34
2018-03-04T23:25:01.723Z,99467.89
2018-03-04T23:27:30.410Z,99465.69
2018-03-04T23:29:59.044Z,99456.70
2018-03-04T23:32:28.705Z,99457.67
2018-03-04T23:34:57.252Z,99453.53
2018-03-04T23:37:25.975Z,99452.33
2018-03-04T23:39:54.660Z,99451.75
2018-03-04T23:42:23.349Z,99466.11
2018-03-04T23:44:52.033Z,99473.36
2018-03-04T23:47:21.693Z,99481.13
2018-03-04T23:49:50.425Z,99471.16
2018-03-04T23:52:19.055Z,99476.90
2018-03-04T23:54:48.673Z,99479.91
2018-03-04T23:57:17.404Z,99474.70
2018-03-04T23:59:46.058Z,99475.30
